Time;durP1;ratioP1;P1;durP2;ratioP2;P2;SDS_P1;SDS_P2;PMS_P1;PMS_P2;Temp;Humidity;BMP_temperature;BMP_pressure;BME280_temperature;BME280_humidity;BME280_pressure;Samples;Min_cycle;Max_cycle;Signal;HPM_P1;HPM_P2
2024/02/15 00:02:07;;;;;;;2.97;1.40;;;;;;;10.98;100.00;154180.53;5013739;28;20455;-77
2024/02/15 00:04:35;;;;;;;1.93;1.70;;;;;;;10.98;100.00;154179.22;5047494;28;20455;-77
2024/02/15 00:07:02;;;;;;;2.60;1.60;;;;;;;10.98;100.00;154180.53;5049157;28;20553;-77
2024/02/15 00:09:28;;;;;;;2.03;1.30;;;;;;;10.97;100.00;154177.91;5048679;28;20550;-77
2024/02/15 00:11:55;;;;;;;1.43;1.10;;;;;;;10.98;100.00;154179.22;5051935;28;20449;-77
2024/02/15 00:14:21;;;;;;;2.00;1.60;;;;;;;10.96;100.00;154175.31;5057890;28;21083;-77
2024/02/15 00:16:48;;;;;;;2.07;1.30;;;;;;;10.94;100.00;154170.13;5034509;28;20964;-77
2024/02/15 00:19:16;;;;;;;3.67;2.20;;;;;;;10.95;100.00;154172.75;5068708;28;20457;-78
2024/02/15 00:21:45;;;;;;;3.30;1.50;;;;;;;10.96;100.00;154175.31;5070446;28;20438;-77
2024/02/15 00:24:11;;;;;;;1.77;1.30;;;;;;;10.94;100.00;154170.13;5051250;28;20507;-77
2024/02/15 00:26:38;;;;;;;3.47;1.90;;;;;;;10.95;100.00;154171.44;5067864;28;20450;-77
2024/02/15 00:29:05;;;;;;;2.90;1.40;;;;;;;10.96;100.00;154174.06;5068184;28;20445;-77
2024/02/15 00:31:32;;;;;;;2.90;1.37;;;;;;;10.95;100.00;154172.75;5067348;28;20817;-78
2024/02/15 00:33:59;;;;;;;2.73;1.47;;;;;;;10.96;100.00;154175.31;5070874;28;20450;-77
2024/02/15 00:36:25;;;;;;;2.27;1.20;;;;;;;10.99;100.00;154183.09;5051304;28;20540;-77
2024/02/15 00:38:55;;;;;;;4.47;2.10;;;;;;;10.97;100.00;154177.91;5066790;28;20446;-76
2024/02/15 00:41:22;;;;;;;2.73;1.80;;;;;;;10.99;100.00;154181.78;5050711;28;20812;-77
2024/02/15 00:43:48;;;;;;;2.67;1.30;;;;;;;10.98;100.00;154180.53;5051503;28;20472;-77
2024/02/15 00:46:16;;;;;;;2.00;1.40;;;;;;;10.99;100.00;154183.09;5052183;28;20446;-77
2024/02/15 00:48:43;;;;;;;3.17;1.93;;;;;;;10.97;100.00;154177.91;5051972;28;21108;-77
2024/02/15 00:51:09;;;;;;;3.43;1.90;;;;;;;10.96;100.00;154175.31;5070202;28;20795;-76
2024/02/15 00:53:36;;;;;;;1.63;1.10;;;;;;;10.96;100.00;154175.31;5057176;28;20488;-77
2024/02/15 00:56:05;;;;;;;2.90;1.57;;;;;;;10.95;100.00;154172.75;5043564;28;20477;-77
2024/02/15 00:58:31;;;;;;;3.70;1.90;;;;;;;10.95;100.00;154172.75;5065840;28;20461;-77
2024/02/15 01:00:57;;;;;;;2.63;1.67;;;;;;;10.96;100.00;154174.06;5068967;28;20487;-76
2024/02/15 01:03:24;;;;;;;2.50;1.37;;;;;;;10.95;100.00;154172.75;5069921;28;20496;-77
2024/02/15 01:05:51;;;;;;;2.10;1.40;;;;;;;10.93;100.00;154167.53;5069688;28;20456;-76
2024/02/15 01:08:18;;;;;;;2.57;1.70;;;;;;;10.92;100.00;154163.66;5054249;28;20845;-77
2024/02/15 01:10:44;;;;;;;1.77;1.40;;;;;;;10.91;100.00;154162.34;5052523;28;20977;-77
2024/02/15 01:13:12;;;;;;;2.47;1.70;;;;;;;10.92;100.00;154164.97;5040679;28;20462;-77
2024/02/15 01:15:41;;;;;;;1.70;1.40;;;;;;;10.90;100.00;154159.78;5047387;28;20871;-77
2024/02/15 01:18:07;;;;;;;3.00;2.07;;;;;;;10.91;100.00;154162.34;5047176;28;21282;-77
2024/02/15 01:20:34;;;;;;;2.00;1.37;;;;;;;10.88;100.00;154154.56;5054144;28;20431;-76
2024/02/15 01:23:00;;;;;;;3.30;2.17;;;;;;;10.87;100.00;154150.72;5048017;28;20447;-77
2024/02/15 01:25:27;;;;;;;1.97;1.53;;;;;;;10.86;100.00;154149.41;5040838;28;21000;-76
2024/02/15 01:27:54;;;;;;;2.63;1.97;;;;;;;10.87;100.00;154152.03;5051642;28;20985;-77
2024/02/15 01:30:22;;;;;;;2.60;1.73;;;;;;;10.86;100.00;154149.41;5054765;28;20509;-77
2024/02/15 01:32:48;;;;;;;1.93;1.60;;;;;;;10.85;100.00;154146.84;5047893;28;20455;-77
2024/02/15 01:35:15;;;;;;;3.47;1.70;;;;;;;10.82;100.00;154139.06;5045662;28;20500;-77
2024/02/15 01:37:40;;;;;;;2.80;1.73;;;;;;;10.80;100.00;154132.59;5049924;28;20508;-77
2024/02/15 01:40:12;;;;;;;2.27;1.60;;;;;;;10.79;100.00;154131.28;5039481;28;21090;-77
2024/02/15 01:42:39;;;;;;;2.10;1.60;;;;;;;10.79;100.00;154131.28;5050942;28;20216;-77
2024/02/15 01:45:06;;;;;;;3.10;1.80;;;;;;;10.76;100.00;154123.53;5048378;28;20840;-77
2024/02/15 01:47:34;;;;;;;1.87;1.60;;;;;;;10.74;100.00;154118.34;5045730;28;20440;-77
2024/02/15 01:50:00;;;;;;;2.83;1.67;;;;;;;10.72;100.00;154111.88;5046908;28;20439;-78
2024/02/15 01:52:27;;;;;;;2.10;1.53;;;;;;;10.72;100.00;154113.13;5042246;28;20452;-77
2024/02/15 01:54:54;;;;;;;2.97;1.80;;;;;;;10.65;100.00;154095.03;5051386;28;20577;-77
2024/02/15 01:57:22;;;;;;;2.00;1.50;;;;;;;10.65;100.00;154093.72;5048216;28;20957;-77
2024/02/15 01:59:51;;;;;;;2.50;1.83;;;;;;;10.58;100.00;154076.91;5049421;28;20458;-77
2024/02/15 02:02:19;;;;;;;2.87;1.80;;;;;;;10.54;100.00;154066.53;5040289;28;20484;-76
2024/02/15 02:04:48;;;;;;;1.83;1.30;;;;;;;10.48;100.00;154051.03;5045800;28;20529;-77
2024/02/15 02:07:15;;;;;;;2.00;1.80;;;;;;;10.43;100.00;154038.09;5037104;28;20595;-76
2024/02/15 02:09:42;;;;;;;2.00;1.60;;;;;;;10.37;100.00;154022.53;5047314;28;20547;-77
2024/02/15 02:12:09;;;;;;;3.00;2.07;;;;;;;10.32;100.00;154009.59;5035501;28;20455;-76
2024/02/15 02:14:35;;;;;;;2.57;1.70;;;;;;;10.27;100.00;153996.66;5047169;28;20961;-77
2024/02/15 02:17:11;;;;;;;1.80;1.40;;;;;;;10.23;100.00;153987.56;5044172;28;20517;-77
2024/02/15 02:19:38;;;;;;;3.03;1.80;;;;;;;10.21;100.00;153981.09;5039950;28;20861;-77
2024/02/15 02:22:09;;;;;;;4.10;2.10;;;;;;;10.19;100.00;153977.19;5047623;28;20450;-77
2024/02/15 02:24:41;;;;;;;4.13;2.20;;;;;;;10.16;100.00;153968.16;5032652;28;20460;-77
2024/02/15 02:27:11;;;;;;;2.97;1.83;;;;;;;10.09;100.00;153949.97;5045546;28;20942;-77
2024/02/15 02:29:44;;;;;;;3.60;1.97;;;;;;;10.10;100.00;153953.88;5044447;28;20459;-77
2024/02/15 02:32:11;;;;;;;2.20;1.73;;;;;;;10.03;100.00;153934.47;5051235;28;20447;-77
2024/02/15 02:34:37;;;;;;;2.63;1.97;;;;;;;9.96;100.00;153917.63;5042251;28;20474;-77
2024/02/15 02:37:07;;;;;;;2.00;1.27;;;;;;;9.98;100.00;153921.53;5046259;28;20496;-77
2024/02/15 02:39:34;;;;;;;3.93;1.70;;;;;;;9.94;100.00;153911.16;5050071;28;20446;-76
2024/02/15 02:42:00;;;;;;;2.80;2.20;;;;;;;9.93;100.00;153908.59;5041204;28;20439;-77
2024/02/15 02:44:28;;;;;;;3.00;2.03;;;;;;;9.93;100.00;153908.59;5045370;28;20953;-77
2024/02/15 02:46:55;;;;;;;3.33;1.90;;;;;;;9.89;100.00;153898.22;5045690;28;20436;-77
2024/02/15 02:49:21;;;;;;;3.10;2.00;;;;;;;9.90;100.00;153900.81;5046653;28;20446;-77
2024/02/15 02:51:48;;;;;;;2.70;2.07;;;;;;;9.86;100.00;153890.44;5039717;28;20589;-77
2024/02/15 02:54:15;;;;;;;2.00;1.70;;;;;;;9.77;100.00;153868.44;5024553;28;20524;-76
2024/02/15 02:56:43;;;;;;;3.40;2.03;;;;;;;9.71;100.00;153852.94;5027621;28;20562;-78
2024/02/15 02:59:10;;;;;;;2.33;1.77;;;;;;;9.70;100.00;153850.34;5046256;28;21008;-76
2024/02/15 03:01:39;;;;;;;7.30;2.17;;;;;;;9.69;100.00;153849.03;5045199;28;20520;-78
2024/02/15 03:04:06;;;;;;;1.93;1.53;;;;;;;9.63;100.00;153833.53;5049063;28;20446;-78
2024/02/15 03:06:32;;;;;;;2.07;1.60;;;;;;;9.63;100.00;153832.25;5048978;28;20527;-78
2024/02/15 03:08:58;;;;;;;2.70;2.00;;;;;;;9.60;100.00;153825.78;5059145;28;20942;-78
2024/02/15 03:11:24;;;;;;;2.10;1.70;;;;;;;9.53;100.00;153807.63;5048514;28;20454;-78
2024/02/15 03:13:51;;;;;;;2.40;1.70;;;;;;;9.51;100.00;153801.16;5046249;28;20522;-78
2024/02/15 03:16:17;;;;;;;2.50;1.60;;;;;;;9.49;100.00;153797.31;5068421;28;20478;-78
2024/02/15 03:18:45;;;;;;;2.80;1.90;;;;;;;9.50;100.00;153799.91;5038568;28;20556;-78
2024/02/15 03:21:12;;;;;;;2.30;1.70;;;;;;;9.48;100.00;153794.69;5063288;28;20438;-78
2024/02/15 03:23:38;;;;;;;1.80;1.40;;;;;;;9.45;100.00;153785.69;5049944;28;20481;-78
2024/02/15 03:26:09;;;;;;;2.50;2.03;;;;;;;9.39;100.00;153770.13;5067403;28;20426;-78
2024/02/15 03:28:36;;;;;;;3.53;2.00;;;;;;;9.38;100.00;153768.84;5043978;28;20996;-76
2024/02/15 03:31:03;;;;;;;2.33;2.13;;;;;;;9.38;100.00;153767.53;5064064;28;20453;-77
2024/02/15 03:33:33;;;;;;;4.10;2.20;;;;;;;9.35;100.00;153761.06;5054481;28;20481;-77
2024/02/15 03:36:01;;;;;;;2.70;1.93;;;;;;;9.33;100.00;153755.91;5067452;28;20472;-77
2024/02/15 03:38:29;;;;;;;3.10;2.47;;;;;;;9.29;100.00;153745.59;5042046;28;20548;-77
2024/02/15 03:40:55;;;;;;;2.50;1.87;;;;;;;9.32;100.00;153752.03;5045715;28;20453;-76
2024/02/15 03:43:23;;;;;;;2.90;1.70;;;;;;;9.26;100.00;153737.81;5051351;28;20455;-77
2024/02/15 03:45:50;;;;;;;2.47;2.17;;;;;;;9.28;100.00;153742.97;5070638;28;20523;-76
2024/02/15 03:48:16;;;;;;;2.50;1.83;;;;;;;9.26;100.00;153737.81;5049153;28;20449;-77
2024/02/15 03:50:43;;;;;;;1.80;1.60;;;;;;;9.25;100.00;153735.22;5070947;28;20955;-77
2024/02/15 03:53:11;;;;;;;3.67;2.27;;;;;;;9.27;100.00;153740.38;5053030;28;20560;-77
2024/02/15 03:55:38;;;;;;;2.13;1.80;;;;;;;9.23;100.00;153730.03;5045696;28;20498;-77
2024/02/15 03:58:04;;;;;;;2.73;1.90;;;;;;;9.18;100.00;153717.13;5071129;28;20980;-76
2024/02/15 04:00:31;;;;;;;3.47;2.03;;;;;;;9.13;100.00;153705.44;5069989;28;20512;-77
2024/02/15 04:02:57;;;;;;;2.93;2.00;;;;;;;9.11;100.00;153698.97;5070830;28;20438;-76
2024/02/15 04:05:24;;;;;;;2.57;1.80;;;;;;;9.10;100.00;153696.41;5037351;28;20456;-76
2024/02/15 04:07:50;;;;;;;2.63;2.43;;;;;;;9.13;100.00;153704.19;5068263;28;20485;-77
2024/02/15 04:10:18;;;;;;;2.23;1.70;;;;;;;9.10;100.00;153696.41;5053636;28;20457;-77
2024/02/15 04:12:45;;;;;;;2.50;2.07;;;;;;;9.08;100.00;153692.50;5054689;28;20493;-78
2024/02/15 04:15:14;;;;;;;3.30;2.10;;;;;;;9.12;100.00;153702.88;5069817;28;20460;-78
2024/02/15 04:17:41;;;;;;;4.33;2.30;;;;;;;9.18;100.00;153718.41;5066691;28;20449;-78
2024/02/15 04:20:10;;;;;;;1.87;1.70;;;;;;;9.22;100.00;153727.44;5041814;28;20576;-78
2024/02/15 04:22:37;;;;;;;2.27;2.00;;;;;;;9.23;100.00;153730.03;5050803;28;20446;-76
2024/02/15 04:25:05;;;;;;;2.33;2.00;;;;;;;9.25;100.00;153733.91;5065606;28;20475;-77
2024/02/15 04:27:33;;;;;;;3.80;2.27;;;;;;;9.28;100.00;153742.97;5054069;28;20861;-77
2024/02/15 04:30:00;;;;;;;2.73;2.30;;;;;;;9.32;100.00;153753.31;5049463;28;20843;-76
2024/02/15 04:32:28;;;;;;;2.37;2.03;;;;;;;9.35;100.00;153759.75;5054811;28;20920;-77
2024/02/15 04:34:55;;;;;;;1.70;1.60;;;;;;;9.34;100.00;153758.50;5069102;28;20438;-76
2024/02/15 04:37:22;;;;;;;2.83;2.00;;;;;;;9.38;100.00;153768.84;5051274;28;20943;-76
2024/02/15 04:39:49;;;;;;;2.63;1.97;;;;;;;9.41;100.00;153775.31;5051628;28;20453;-77
2024/02/15 04:42:18;;;;;;;2.97;2.47;;;;;;;9.43;100.00;153781.75;5073894;28;20879;-76
2024/02/15 04:44:46;;;;;;;2.10;1.90;;;;;;;9.44;100.00;153784.38;5061675;28;20452;-76
2024/02/15 04:47:12;;;;;;;3.37;2.00;;;;;;;9.45;100.00;153786.94;5034908;28;20454;-76
2024/02/15 04:49:39;;;;;;;2.20;1.70;;;;;;;9.46;100.00;153788.22;5051939;28;20458;-77
2024/02/15 04:52:06;;;;;;;2.13;1.87;;;;;;;9.48;100.00;153794.69;5055480;28;20449;-77
2024/02/15 04:54:33;;;;;;;2.77;1.77;;;;;;;9.48;100.00;153793.41;5055550;28;20456;-77
2024/02/15 04:57:00;;;;;;;1.83;1.70;;;;;;;9.50;100.00;153799.91;5064880;28;20481;-77
2024/02/15 04:59:28;;;;;;;1.90;1.70;;;;;;;9.50;100.00;153799.91;5077329;28;20933;-77
2024/02/15 05:01:57;;;;;;;3.03;1.97;;;;;;;9.51;100.00;153802.47;5069767;28;20464;-78
2024/02/15 05:04:24;;;;;;;1.93;1.40;;;;;;;9.54;100.00;153810.25;5060387;28;20441;-78
2024/02/15 05:06:51;;;;;;;6.93;1.77;;;;;;;9.53;100.00;153807.63;5041070;28;20491;-78
2024/02/15 05:09:18;;;;;;;2.20;1.57;;;;;;;9.55;100.00;153812.84;5041522;28;20490;-77
2024/02/15 05:11:47;;;;;;;2.93;2.27;;;;;;;9.58;100.00;153819.31;5046085;28;20470;-77
2024/02/15 05:14:18;;;;;;;4.30;2.20;;;;;;;9.59;100.00;153823.16;5038848;28;20447;-77
2024/02/15 05:16:48;;;;;;;4.20;2.20;;;;;;;9.59;100.00;153823.16;5058777;28;20586;-77
2024/02/15 05:19:17;;;;;;;2.50;1.80;;;;;;;9.60;100.00;153825.78;5049834;28;20486;-78
2024/02/15 05:21:44;;;;;;;2.10;1.90;;;;;;;9.61;100.00;153828.34;5047494;28;20443;-77
2024/02/15 05:24:14;;;;;;;2.23;1.93;;;;;;;9.63;100.00;153832.25;5043763;28;20451;-77
2024/02/15 05:26:42;;;;;;;2.97;1.87;;;;;;;9.62;100.00;153830.94;5048089;28;20533;-77
2024/02/15 05:29:12;;;;;;;2.27;1.80;;;;;;;9.65;100.00;153837.41;5050593;28;20442;-77
2024/02/15 05:31:39;;;;;;;2.10;1.90;;;;;;;9.63;100.00;153832.25;5047585;28;20822;-77
2024/02/15 05:34:07;;;;;;;3.17;2.17;;;;;;;9.61;100.00;153828.34;5046141;28;20497;-77
2024/02/15 05:36:35;;;;;;;2.77;2.10;;;;;;;9.63;100.00;153832.25;5045826;28;20483;-77
2024/02/15 05:39:05;;;;;;;2.60;1.90;;;;;;;9.60;100.00;153825.78;5049199;28;20485;-77
2024/02/15 05:41:34;;;;;;;4.27;2.07;;;;;;;9.60;100.00;153825.78;5041626;28;20434;-77
2024/02/15 05:44:00;;;;;;;5.63;2.07;;;;;;;9.59;100.00;153823.16;5048584;28;20447;-77
2024/02/15 05:46:29;;;;;;;2.60;1.77;;;;;;;9.60;100.00;153825.78;5048186;28;20447;-77
2024/02/15 05:48:56;;;;;;;3.07;2.50;;;;;;;9.63;100.00;153832.25;5049101;28;20466;-77
2024/02/15 05:51:23;;;;;;;2.87;1.90;;;;;;;9.65;100.00;153838.72;5050587;28;20435;-77
2024/02/15 05:53:53;;;;;;;3.20;2.20;;;;;;;9.65;100.00;153837.41;5046732;28;20532;-77
2024/02/15 05:56:20;;;;;;;2.90;2.30;;;;;;;9.58;100.00;153819.31;5042946;28;20467;-78
2024/02/15 05:58:46;;;;;;;2.67;1.97;;;;;;;9.57;100.00;153818.00;5042531;28;20462;-77
2024/02/15 06:01:15;;;;;;;2.60;2.17;;;;;;;9.56;100.00;153815.41;5049358;28;20588;-78
2024/02/15 06:03:44;;;;;;;3.27;2.23;;;;;;;9.54;100.00;153810.25;5047716;28;20458;-77
2024/02/15 06:06:11;;;;;;;2.17;1.97;;;;;;;9.54;100.00;153810.25;5020387;28;20471;-77
2024/02/15 06:08:38;;;;;;;2.30;1.90;;;;;;;9.53;100.00;153807.63;5034534;28;20974;-77
2024/02/15 06:11:06;;;;;;;2.77;2.00;;;;;;;9.54;100.00;153808.94;5038475;28;20941;-77
2024/02/15 06:13:33;;;;;;;3.53;1.97;;;;;;;9.51;100.00;153801.16;5033558;28;20510;-77
2024/02/15 06:16:01;;;;;;;2.90;2.30;;;;;;;9.49;100.00;153797.31;5036391;28;20474;-77
2024/02/15 06:18:31;;;;;;;2.63;2.30;;;;;;;9.50;100.00;153799.91;5038655;28;20467;-77
2024/02/15 06:20:59;;;;;;;3.50;2.00;;;;;;;9.50;100.00;153799.91;5036985;28;20860;-77
2024/02/15 06:23:26;;;;;;;2.40;2.20;;;;;;;9.52;100.00;153805.06;5036920;28;20847;-77
2024/02/15 06:25:54;;;;;;;2.20;1.80;;;;;;;9.49;100.00;153796.00;5036860;28;20537;-77
2024/02/15 06:42:00;;;;;;;3.43;2.27;;;;;;;9.34;100.00;153757.22;5021470;28;20439;-77
2024/02/15 06:44:29;;;;;;;4.20;2.57;;;;;;;9.32;100.00;153753.31;5019293;28;22451;-77
2024/02/15 06:46:56;;;;;;;3.03;2.30;;;;;;;9.32;100.00;153752.03;5036278;28;20784;-77
2024/02/15 06:49:24;;;;;;;5.23;2.60;;;;;;;9.29;100.00;153745.59;5035386;28;20513;-77
2024/02/15 06:51:51;;;;;;;2.70;2.20;;;;;;;9.29;100.00;153744.28;5035341;28;20448;-77
2024/02/15 06:54:19;;;;;;;3.17;2.23;;;;;;;9.30;100.00;153748.13;5025761;28;20561;-90
2024/02/15 06:56:56;;;;;;;4.13;2.93;;;;;;;9.29;100.00;153745.59;5028320;28;20483;-90
2024/02/15 06:59:25;;;;;;;3.13;2.67;;;;;;;9.32;100.00;153752.03;5026644;28;21004;-91
2024/02/15 07:01:55;;;;;;;3.17;2.20;;;;;;;9.34;100.00;153758.50;5032249;28;20992;-90
2024/02/15 07:04:21;;;;;;;4.20;2.70;;;;;;;9.37;100.00;153764.97;5049936;28;20592;-90
2024/02/15 07:06:49;;;;;;;3.40;2.77;;;;;;;9.33;100.00;153755.91;5036644;28;20479;-91
2024/02/15 07:09:17;;;;;;;4.00;2.47;;;;;;;9.40;100.00;153774.00;5066482;28;20550;-91
2024/02/15 07:11:44;;;;;;;3.30;2.40;;;;;;;9.42;100.00;153779.22;5052399;28;20857;-91
2024/02/15 07:14:10;;;;;;;2.90;2.07;;;;;;;9.43;100.00;153781.75;5066347;28;20498;-90
2024/02/15 07:16:40;;;;;;;4.20;2.80;;;;;;;9.50;100.00;153799.91;5068124;28;20867;-90
2024/02/15 07:19:09;;;;;;;2.53;2.13;;;;;;;9.63;100.00;153833.53;5069736;28;20457;-90
2024/02/15 07:21:36;;;;;;;4.27;2.83;;;;;;;9.82;100.00;153880.13;5070728;28;20446;-90
2024/02/15 07:24:04;;;;;;;3.70;2.20;;;;;;;9.99;100.00;153924.09;5069588;28;20444;-90
2024/02/15 07:26:31;;;;;;;3.17;2.10;;;;;;;10.14;100.00;153963.00;5067214;28;20445;-90
2024/02/15 07:28:58;;;;;;;4.37;2.80;;;;;;;10.32;100.00;154009.59;5041412;28;20463;-90
2024/02/15 07:31:28;;;;;;;3.17;2.40;;;;;;;10.59;100.00;154078.22;5035777;28;21031;-90
2024/02/15 07:33:55;;;;;;;3.20;2.90;;;;;;;10.96;100.00;154174.06;5066533;28;20462;-90
2024/02/15 07:36:24;;;;;;;3.10;2.20;;;;;;;11.44;100.00;154297.06;5069764;28;20486;-90
2024/02/15 07:38:52;;;;;;;2.77;2.50;;;;;;;11.57;100.00;154330.75;5036953;28;20459;-90
2024/02/15 07:41:22;;;;;;;5.73;2.70;;;;;;;11.72;100.00;154369.72;5052666;28;20454;-90
2024/02/15 07:43:49;;;;;;;2.87;2.57;;;;;;;11.90;100.00;154416.38;5033050;28;20523;-89
2024/02/15 07:46:16;;;;;;;3.70;2.10;;;;;;;12.19;100.00;154491.56;5042992;28;20512;-89
2024/02/15 07:48:45;;;;;;;2.67;2.40;;;;;;;12.69;99.49;154619.91;5042937;28;20949;-89
2024/02/15 07:51:12;;;;;;;2.80;2.43;;;;;;;13.34;96.02;154786.03;5063510;28;20523;-90
2024/02/15 07:53:40;;;;;;;3.30;1.83;;;;;;;13.63;91.36;154860.00;5062897;28;20532;-90
2024/02/15 07:56:07;;;;;;;3.33;2.43;;;;;;;13.79;90.68;154901.53;5064922;28;20452;-90
2024/02/15 07:58:36;;;;;;;3.40;2.53;;;;;;;13.95;88.81;154943.09;5057032;28;20840;-90
2024/02/15 08:01:05;;;;;;;2.90;2.43;;;;;;;13.85;85.84;154918.38;5057809;28;20535;-90
2024/02/15 08:03:32;;;;;;;2.93;2.10;;;;;;;13.86;85.37;154921.00;5059230;28;20466;-90
2024/02/15 08:05:58;;;;;;;2.77;2.17;;;;;;;13.71;85.02;154882.06;5065968;28;20553;-89
2024/02/15 08:08:25;;;;;;;3.27;2.40;;;;;;;13.86;85.06;154921.00;5064475;28;20483;-89
2024/02/15 08:10:53;;;;;;;5.33;2.50;;;;;;;13.95;81.89;154943.09;5055938;28;21071;-90
2024/02/15 08:13:28;;;;;;;3.50;3.20;;;;;;;13.72;82.97;154884.63;5039721;28;20451;-88
2024/02/15 08:15:54;;;;;;;3.50;2.30;;;;;;;13.34;84.10;154786.03;5067463;28;20695;-89
2024/02/15 08:18:21;;;;;;;2.73;2.10;;;;;;;13.03;86.25;154706.81;5062414;28;20508;-89
2024/02/15 08:20:47;;;;;;;3.10;2.60;;;;;;;12.83;87.15;154654.94;5062454;28;20528;-89
2024/02/15 08:23:14;;;;;;;4.53;2.90;;;;;;;12.65;87.54;154608.25;5042522;28;21051;-89
2024/02/15 08:25:41;;;;;;;3.20;2.90;;;;;;;12.56;88.09;154586.19;5064678;28;20960;-89
2024/02/15 08:28:09;;;;;;;3.30;2.53;;;;;;;12.39;88.81;154540.84;5058289;28;20470;-88
2024/02/15 08:30:37;;;;;;;2.43;2.20;;;;;;;12.29;89.70;154514.84;5051598;28;20454;-89
2024/02/15 08:33:04;;;;;;;4.20;2.70;;;;;;;12.21;90.00;154496.72;5070256;28;20457;-89
2024/02/15 08:35:31;;;;;;;2.83;2.50;;;;;;;12.19;90.58;154491.56;5051277;28;20465;-89
2024/02/15 08:37:58;;;;;;;3.10;2.60;;;;;;;12.16;90.08;154483.78;5052755;28;20484;-89
2024/02/15 08:40:26;;;;;;;3.43;2.83;;;;;;;12.20;91.92;154494.13;5047912;28;20461;-89
2024/02/15 08:42:52;;;;;;;4.53;2.27;;;;;;;12.19;91.34;154490.25;5045472;28;20462;-88
2024/02/15 08:45:20;;;;;;;4.13;2.30;;;;;;;12.23;91.70;154501.91;5048895;28;20872;-89
2024/02/15 08:47:49;;;;;;;7.03;2.07;;;;;;;12.17;90.39;154486.38;5070679;28;20558;-89
2024/02/15 08:50:17;;;;;;;3.77;2.20;;;;;;;12.15;89.61;154479.91;5044762;28;20467;-89
2024/02/15 08:52:43;;;;;;;2.63;2.40;;;;;;;12.17;89.53;154486.38;5051026;28;20462;-89
2024/02/15 08:55:14;;;;;;;3.10;2.13;;;;;;;12.16;88.10;154483.78;5051956;28;20477;-89
2024/02/15 08:57:43;;;;;;;2.90;2.10;;;;;;;12.13;88.43;154475.97;5050506;28;20562;-89
2024/02/15 09:00:13;;;;;;;3.73;1.90;;;;;;;12.06;88.98;154457.84;5069039;28;20457;-89
2024/02/15 09:02:41;;;;;;;3.37;1.80;;;;;;;12.04;89.46;154451.38;5062478;28;20448;-89
2024/02/15 09:05:08;;;;;;;3.53;2.20;;;;;;;12.01;88.66;154444.91;5062815;28;20477;-89
2024/02/15 09:07:36;;;;;;;2.40;2.00;;;;;;;11.93;88.77;154424.16;5043533;28;20551;-89
2024/02/15 09:10:02;;;;;;;2.70;2.30;;;;;;;11.93;89.94;154424.16;5049309;28;20864;-88
2024/02/15 09:16:31;;;;;;;3.80;2.47;;;;;;;12.02;90.26;154447.44;5008490;28;20526;-88
2024/02/15 09:19:00;;;;;;;3.20;2.90;;;;;;;12.07;89.81;154459.16;5048321;28;20502;-89
2024/02/15 09:21:28;;;;;;;5.50;3.17;;;;;;;12.14;89.64;154478.59;5048875;28;20461;-89
2024/02/15 09:23:54;;;;;;;3.87;3.07;;;;;;;12.20;89.90;154494.13;5048036;28;20439;-89
2024/02/15 09:26:21;;;;;;;4.47;2.43;;;;;;;12.25;90.48;154504.50;5032336;28;20542;-89
2024/02/15 09:28:48;;;;;;;4.30;2.90;;;;;;;12.27;89.64;154511.00;5039623;28;20493;-89
2024/02/15 09:31:15;;;;;;;3.30;3.00;;;;;;;12.31;89.21;154520.09;5041347;28;20516;-89
2024/02/15 09:33:41;;;;;;;3.63;2.77;;;;;;;12.38;90.42;154539.53;5042458;28;20882;-89
2024/02/15 09:36:10;;;;;;;3.47;2.60;;;;;;;12.38;89.99;154539.53;5047034;28;20459;-89
2024/02/15 09:38:37;;;;;;;4.00;2.47;;;;;;;12.41;89.28;154546.00;5063179;28;20498;-89
2024/02/15 09:41:07;;;;;;;5.40;3.20;;;;;;;12.44;88.40;154555.09;5054426;28;20469;-89
2024/02/15 09:43:39;;;;;;;3.57;2.63;;;;;;;12.52;87.95;154575.78;5047579;28;20443;-88
2024/02/15 09:46:06;;;;;;;3.43;3.10;;;;;;;12.58;87.03;154591.38;5037850;28;20470;-88
2024/02/15 09:48:33;;;;;;;7.47;2.70;;;;;;;12.60;87.20;154596.56;5041829;28;20439;-88
2024/02/15 09:51:01;;;;;;;3.53;2.63;;;;;;;12.62;87.21;154600.47;5048122;28;20467;-88
2024/02/15 09:53:29;;;;;;;3.00;2.67;;;;;;;12.69;87.17;154618.63;5044575;28;20462;-89
2024/02/15 09:56:03;;;;;;;3.87;2.93;;;;;;;12.73;87.64;154630.28;5061690;28;20528;-89
2024/02/15 09:58:33;;;;;;;2.13;1.90;;;;;;;12.73;85.08;154629.00;5061097;28;20989;-89
2024/02/15 10:01:01;;;;;;;3.83;2.40;;;;;;;12.73;84.74;154630.28;5048667;28;20451;-88
2024/02/15 10:03:31;;;;;;;5.73;2.57;;;;;;;12.70;84.04;154622.53;5059527;28;20451;-89
2024/02/15 10:05:58;;;;;;;2.73;2.30;;;;;;;12.68;84.56;154616.03;5042127;28;20487;-89
2024/02/15 10:08:24;;;;;;;5.10;2.33;;;;;;;12.69;84.07;154619.91;5042145;28;20560;-89
2024/02/15 10:11:06;;;;;;;3.10;2.43;;;;;;;12.74;84.99;154632.88;5047351;28;20467;-88
2024/02/15 10:13:32;;;;;;;2.67;2.43;;;;;;;12.82;84.63;154652.31;5046777;28;20451;-89
2024/02/15 10:15:59;;;;;;;2.90;2.40;;;;;;;12.80;82.65;154647.16;5040780;28;20514;-77
2024/02/15 10:18:26;;;;;;;3.00;2.13;;;;;;;12.84;83.84;154657.50;5050594;28;20467;-77
2024/02/15 10:20:58;;;;;;;2.83;2.33;;;;;;;12.88;82.55;154667.91;5034331;28;20464;-77
2024/02/15 10:23:38;;;;;;;3.07;2.03;;;;;;;12.95;83.70;154684.75;5037445;28;20518;-77
2024/02/15 10:29:15;;;;;;;2.50;1.90;;;;;;;13.06;81.96;154714.59;5151417;27;20521;-76
2024/02/15 10:31:54;;;;;;;2.90;1.93;;;;;;;13.05;81.55;154712.00;5150892;27;20932;-76
2024/02/15 10:34:30;;;;;;;4.20;2.10;;;;;;;13.10;81.74;154725.06;5152348;27;20493;-77
2024/02/15 10:36:57;;;;;;;3.80;2.10;;;;;;;13.16;79.73;154739.28;5153493;27;20450;-77
2024/02/15 10:39:24;;;;;;;5.30;2.23;;;;;;;13.20;80.25;154751.00;5146440;27;20445;-77
2024/02/15 10:41:52;;;;;;;3.00;2.00;;;;;;;13.32;78.79;154782.13;5148425;27;20575;-76
2024/02/15 10:44:23;;;;;;;3.30;1.77;;;;;;;13.33;80.41;154784.72;5137331;27;20486;-77
2024/02/15 10:46:52;;;;;;;4.40;1.70;;;;;;;13.40;79.85;154802.88;5128867;27;20454;-88
2024/02/15 10:49:20;;;;;;;3.20;2.20;;;;;;;13.45;78.25;154814.53;5151536;27;20523;-89
2024/02/15 10:51:51;;;;;;;1.70;1.40;;;;;;;13.48;78.93;154821.03;5122191;27;20450;-89
2024/02/15 10:54:29;;;;;;;3.20;1.70;;;;;;;13.52;78.17;154831.44;5158331;27;20443;-89
2024/02/15 10:56:59;;;;;;;3.00;1.60;;;;;;;13.61;77.62;154854.81;5130013;27;20825;-87
2024/02/15 10:59:30;;;;;;;3.37;1.70;;;;;;;13.65;77.24;154865.19;5155545;27;20513;-87
2024/02/15 11:02:05;;;;;;;2.43;1.50;;;;;;;13.61;78.13;154854.81;5157334;27;20454;-88
2024/02/15 11:04:36;;;;;;;3.60;1.93;;;;;;;13.69;77.35;154875.53;5153991;27;20442;-88
2024/02/15 11:07:04;;;;;;;3.40;2.30;;;;;;;13.70;77.49;154879.47;5147090;27;20474;-88
2024/02/15 11:09:31;;;;;;;3.90;1.30;;;;;;;13.78;76.99;154900.22;5142804;27;20486;-88
2024/02/15 11:11:57;;;;;;;2.03;1.20;;;;;;;13.82;76.78;154909.34;5135862;27;20450;-88
2024/02/15 11:14:24;;;;;;;2.77;1.70;;;;;;;13.82;79.00;154909.34;5151521;27;21016;-88
2024/02/15 11:16:52;;;;;;;3.00;1.20;;;;;;;13.86;78.35;154921.00;5146780;27;20457;-88
2024/02/15 11:19:41;;;;;;;1.80;1.07;;;;;;;13.91;77.07;154932.66;5146762;27;21025;-88
2024/02/15 11:22:10;;;;;;;2.53;1.20;;;;;;;13.89;77.66;154927.50;5147332;27;20450;-88
2024/02/15 11:24:39;;;;;;;2.50;1.47;;;;;;;13.87;80.88;154922.31;5155357;27;20450;-89
2024/02/15 11:27:07;;;;;;;1.80;1.10;;;;;;;13.84;77.18;154914.50;5138162;27;20984;-89
2024/02/15 11:29:51;;;;;;;2.20;1.40;;;;;;;13.91;77.61;154932.66;5137078;27;20498;-88
2024/02/15 11:32:39;;;;;;;2.97;1.30;;;;;;;13.92;78.96;154935.28;5156869;27;20453;-88
2024/02/15 11:35:10;;;;;;;2.30;1.40;;;;;;;13.83;79.81;154911.91;5151961;27;20443;-88
2024/02/15 11:38:13;;;;;;;2.57;1.13;;;;;;;13.89;78.35;154927.50;5142686;27;20461;-89
2024/02/15 11:41:06;;;;;;;3.10;1.30;;;;;;;13.93;79.17;154937.84;5113273;27;20499;-88
2024/02/15 11:43:57;;;;;;;2.60;1.20;;;;;;;14.02;77.70;154962.56;5117724;27;20463;-88
2024/02/15 11:46:25;;;;;;;1.80;1.60;;;;;;;13.99;79.56;154953.44;5144965;27;20518;-88
2024/02/15 11:48:54;;;;;;;2.40;1.70;;;;;;;14.04;78.14;154967.72;5141414;27;21103;-88
2024/02/15 11:51:27;;;;;;;3.00;1.40;;;;;;;14.02;78.75;154961.25;5141475;27;20450;-87